createdAt,value
2019-03-15T00:01:50.542Z,7.47
2019-03-15T00:04:19.312Z,7.55
2019-03-15T00:06:48.200Z,7.58
2019-03-15T00:09:17.637Z,7.60
2019-03-15T00:11:46.395Z,7.62
2019-03-15T00:14:15.239Z,7.58
2019-03-15T00:16:44.004Z,7.61
2019-03-15T00:19:12.894Z,7.66
2019-03-15T00:21:41.805Z,7.70
2019-03-15T00:24:10.571Z,7.70
2019-03-15T00:26:39.454Z,7.62
2019-03-15T00:29:08.885Z,7.65
2019-03-15T00:31:37.808Z,7.65
2019-03-15T00:34:06.939Z,7.68
2019-03-15T00:36:36.372Z,7.63
2019-03-15T00:39:06.645Z,7.61
2019-03-15T00:41:35.409Z,7.69
2019-03-15T00:44:04.249Z,7.72
2019-03-15T00:46:33.054Z,7.76
2019-03-15T00:49:02.485Z,7.70
2019-03-15T00:51:31.959Z,7.74
2019-03-15T00:54:01.339Z,7.72
2019-03-15T00:56:30.776Z,7.72
2019-03-15T00:58:59.614Z,7.70
2019-03-15T01:01:28.491Z,7.71
2019-03-15T01:03:57.308Z,7.61
2019-03-15T01:06:26.731Z,7.62
2019-03-15T01:08:56.169Z,7.66
2019-03-15T01:11:25.540Z,7.68
2019-03-15T01:13:54.913Z,7.69
2019-03-15T01:16:23.672Z,7.64
2019-03-15T01:18:52.499Z,7.65
2019-03-15T01:21:21.916Z,7.58
2019-03-15T01:23:50.669Z,7.57
2019-03-15T01:26:19.454Z,7.62
2019-03-15T01:28:48.810Z,7.57
2019-03-15T01:31:18.296Z,7.58
2019-03-15T01:33:47.197Z,7.59
2019-03-15T01:36:16.651Z,7.49
2019-03-15T01:38:46.147Z,7.54
2019-03-15T01:41:14.908Z,7.53
2019-03-15T01:43:44.262Z,7.55
2019-03-15T01:46:13.067Z,7.50
2019-03-15T01:48:42.596Z,7.51
2019-03-15T01:51:11.383Z,7.44
2019-03-15T01:53:40.215Z,7.46
2019-03-15T01:56:09.601Z,7.37
2019-03-15T01:58:38.395Z,7.41
2019-03-15T02:01:07.143Z,7.37
2019-03-15T02:03:35.977Z,7.39
2019-03-15T02:06:04.795Z,7.36
2019-03-15T02:08:34.147Z,7.35
2019-03-15T02:11:03.714Z,7.33
2019-03-15T02:13:32.607Z,7.25
2019-03-15T02:16:01.495Z,7.27
2019-03-15T02:18:30.327Z,7.25
2019-03-15T02:20:59.743Z,7.23
2019-03-15T02:23:29.158Z,7.24
2019-03-15T02:25:57.940Z,7.20
2019-03-15T02:28:26.762Z,7.16
2019-03-15T02:30:55.592Z,7.15
2019-03-15T02:33:24.426Z,7.13
2019-03-15T02:35:53.863Z,7.10
2019-03-15T02:38:23.292Z,7.03
2019-03-15T02:40:53.314Z,7.00
2019-03-15T02:43:22.717Z,6.95
2019-03-15T02:45:51.551Z,6.92
2019-03-15T02:48:20.335Z,6.95
2019-03-15T02:50:49.218Z,6.93
2019-03-15T02:53:18.560Z,6.99
2019-03-15T02:55:48.323Z,6.91
2019-03-15T02:58:17.270Z,6.81
2019-03-15T03:00:46.045Z,6.82
2019-03-15T03:03:14.887Z,6.86
2019-03-15T03:05:43.699Z,6.81
2019-03-15T03:08:14.163Z,6.81
2019-03-15T03:10:43.202Z,6.84
2019-03-15T03:13:11.960Z,6.83
2019-03-15T03:15:40.785Z,6.83
2019-03-15T03:18:09.552Z,6.83
2019-03-15T03:20:38.386Z,6.78
2019-03-15T03:23:07.313Z,6.73
2019-03-15T03:25:36.104Z,6.76
2019-03-15T03:28:04.958Z,6.71
2019-03-15T03:30:33.731Z,6.74
2019-03-15T03:33:02.492Z,6.75
2019-03-15T03:35:31.252Z,6.68
2019-03-15T03:38:00.112Z,6.70
2019-03-15T03:40:29.589Z,6.68
2019-03-15T03:42:58.510Z,6.63
2019-03-15T03:45:27.278Z,6.68
2019-03-15T03:47:56.118Z,6.62
2019-03-15T03:50:24.885Z,6.64
2019-03-15T03:52:53.651Z,6.57
2019-03-15T03:55:22.421Z,6.59
2019-03-15T03:57:51.271Z,6.62
2019-03-15T04:00:20.103Z,6.59
2019-03-15T04:02:48.865Z,6.48
2019-03-15T04:05:17.714Z,6.51
2019-03-15T04:07:46.555Z,6.50
2019-03-15T04:10:15.401Z,6.47
2019-03-15T04:12:44.239Z,6.50
2019-03-15T04:15:13.006Z,6.52
2019-03-15T04:17:41.846Z,6.50
2019-03-15T04:20:14.287Z,6.52
2019-03-15T04:22:43.124Z,6.49
2019-03-15T04:25:11.894Z,6.47
2019-03-15T04:27:40.728Z,6.52
2019-03-15T04:30:13.609Z,6.47
2019-03-15T04:32:42.440Z,6.32
2019-03-15T04:35:11.281Z,6.29
2019-03-15T04:37:40.151Z,6.24
2019-03-15T04:40:11.287Z,6.23
2019-03-15T04:42:40.130Z,6.18
2019-03-15T04:45:09.283Z,6.04
2019-03-15T04:47:38.060Z,6.06
2019-03-15T04:50:07.635Z,6.17
2019-03-15T04:52:36.469Z,6.20
2019-03-15T04:55:06.305Z,6.31
2019-03-15T04:57:35.224Z,6.42
2019-03-15T05:00:04.785Z,6.32
2019-03-15T05:02:33.685Z,6.29
2019-03-15T05:05:02.523Z,6.29
2019-03-15T05:07:31.400Z,6.24
2019-03-15T05:10:00.404Z,6.28
2019-03-15T05:12:29.186Z,6.30
2019-03-15T05:14:57.973Z,6.26
2019-03-15T05:17:26.790Z,6.25
2019-03-15T05:19:55.620Z,6.24
2019-03-15T05:22:24.398Z,6.21
2019-03-15T05:24:53.248Z,6.32
2019-03-15T05:27:22.080Z,6.36
2019-03-15T05:29:50.925Z,6.33
2019-03-15T05:32:19.691Z,6.38
2019-03-15T05:34:48.492Z,6.26
2019-03-15T05:37:17.276Z,6.14
2019-03-15T05:39:46.058Z,6.16
2019-03-15T05:42:14.897Z,6.18
2019-03-15T05:44:43.730Z,6.26
2019-03-15T05:47:12.568Z,6.46
2019-03-15T05:49:41.409Z,6.71
2019-03-15T05:52:10.264Z,6.81
2019-03-15T05:54:39.126Z,6.88
2019-03-15T05:57:08.479Z,7.04
2019-03-15T05:59:37.923Z,7.18
2019-03-15T06:02:07.369Z,7.31
2019-03-15T06:04:36.856Z,7.26
2019-03-15T06:07:06.219Z,7.27
2019-03-15T06:09:35.654Z,7.58
2019-03-15T06:12:05.034Z,7.64
2019-03-15T06:14:34.485Z,7.57
2019-03-15T06:17:03.918Z,7.84
2019-03-15T06:19:33.352Z,7.86
2019-03-15T06:22:02.818Z,8.04
2019-03-15T06:24:32.250Z,8.31
2019-03-15T06:27:01.645Z,8.57
2019-03-15T06:29:31.041Z,8.71
2019-03-15T06:32:00.427Z,8.71
2019-03-15T06:34:29.876Z,8.85
2019-03-15T06:36:59.235Z,8.91
2019-03-15T06:39:28.686Z,8.91
2019-03-15T06:41:58.137Z,8.97
2019-03-15T06:44:27.571Z,9.21
2019-03-15T06:46:56.994Z,9.25
2019-03-15T06:49:26.372Z,9.42
2019-03-15T06:51:55.720Z,9.77
2019-03-15T06:54:25.085Z,9.96
2019-03-15T06:56:54.518Z,10.03
2019-03-15T06:59:23.888Z,10.28
2019-03-15T07:01:53.273Z,10.23
2019-03-15T07:04:22.659Z,10.45
2019-03-15T07:06:52.042Z,10.70
2019-03-15T07:09:21.422Z,10.76
2019-03-15T07:11:50.793Z,10.98
2019-03-15T07:14:20.398Z,11.10
2019-03-15T07:16:49.771Z,11.34
2019-03-15T07:19:26.047Z,11.39
2019-03-15T07:21:50.307Z,11.10
2019-03-15T07:24:24.936Z,11.55
2019-03-15T07:26:50.941Z,11.53
2019-03-15T07:29:20.435Z,11.71
2019-03-15T07:31:49.784Z,11.82
2019-03-15T07:34:19.237Z,11.73
2019-03-15T07:36:48.618Z,11.81
2019-03-15T07:39:18.003Z,12.03
2019-03-15T07:41:47.447Z,12.15
2019-03-15T07:44:16.888Z,12.14
2019-03-15T07:46:46.256Z,12.33
2019-03-15T07:49:15.695Z,12.31
2019-03-15T07:51:45.053Z,12.74
2019-03-15T07:54:14.417Z,12.65
2019-03-15T07:56:43.855Z,12.80
2019-03-15T07:59:13.298Z,12.99
2019-03-15T08:01:42.672Z,13.29
2019-03-15T08:04:17.063Z,13.06
2019-03-15T08:06:43.153Z,13.14
2019-03-15T08:09:12.500Z,13.15
2019-03-15T08:11:41.872Z,13.32
2019-03-15T08:14:11.302Z,13.55
2019-03-15T08:16:40.746Z,13.43
2019-03-15T08:19:10.131Z,13.68
2019-03-15T08:21:39.498Z,13.83
2019-03-15T08:24:08.933Z,13.90
2019-03-15T08:26:38.304Z,13.76
2019-03-15T08:29:09.614Z,14.05
2019-03-15T08:31:38.908Z,14.56
2019-03-15T08:34:08.338Z,14.89
2019-03-15T08:36:37.780Z,14.31
2019-03-15T08:39:07.535Z,14.86
2019-03-15T08:41:36.978Z,15.29
2019-03-15T08:44:06.411Z,15.27
2019-03-15T08:46:35.837Z,15.70
2019-03-15T08:49:05.256Z,15.23
2019-03-15T08:51:34.610Z,15.20
2019-03-15T08:54:04.139Z,15.42
2019-03-15T08:56:33.512Z,15.79
2019-03-15T08:59:02.883Z,16.06
2019-03-15T09:01:32.248Z,15.90
2019-03-15T09:04:01.685Z,15.74
2019-03-15T09:06:31.119Z,16.45
2019-03-15T09:09:00.557Z,16.39
2019-03-15T09:11:30.014Z,16.46
2019-03-15T09:13:59.516Z,16.27
2019-03-15T09:16:28.916Z,17.27
2019-03-15T09:18:58.346Z,17.78
2019-03-15T09:21:27.781Z,18.03
2019-03-15T09:23:57.150Z,18.04
2019-03-15T09:26:26.592Z,17.47
2019-03-15T09:28:55.951Z,17.28
2019-03-15T09:31:25.319Z,16.93
2019-03-15T09:33:54.687Z,17.07
2019-03-15T09:36:24.088Z,17.19
2019-03-15T09:38:53.541Z,16.66
2019-03-15T09:41:31.970Z,16.41
2019-03-15T09:43:53.995Z,16.87
2019-03-15T09:46:23.421Z,17.04
2019-03-15T09:48:52.824Z,17.21
2019-03-15T09:51:22.269Z,17.06
2019-03-15T09:53:51.692Z,17.27
2019-03-15T09:56:21.121Z,16.72
2019-03-15T09:58:50.472Z,16.63
2019-03-15T10:01:34.156Z,16.55
2019-03-15T10:03:50.898Z,16.61
2019-03-15T10:06:20.332Z,16.53
2019-03-15T10:08:49.759Z,16.74
2019-03-15T10:11:19.120Z,16.68
2019-03-15T10:13:48.548Z,15.99
2019-03-15T10:16:17.977Z,16.00
2019-03-15T10:18:50.344Z,16.31
2019-03-15T10:21:18.476Z,16.37
2019-03-15T10:23:47.909Z,16.39
2019-03-15T10:26:17.277Z,16.87
2019-03-15T10:28:46.724Z,16.74
2019-03-15T10:31:17.501Z,17.27
2019-03-15T10:33:50.791Z,17.24
2019-03-15T10:36:18.008Z,17.77
2019-03-15T10:38:47.451Z,17.13
2019-03-15T10:41:16.876Z,16.87
2019-03-15T10:43:46.320Z,16.69
2019-03-15T10:46:15.666Z,17.37
2019-03-15T10:48:45.019Z,17.73
2019-03-15T10:51:14.363Z,18.60
2019-03-15T10:53:43.706Z,18.43
2019-03-15T10:56:13.150Z,18.63
2019-03-15T10:58:42.514Z,18.57
2019-03-15T11:01:11.941Z,18.21
2019-03-15T11:03:41.374Z,18.02
2019-03-15T11:06:10.721Z,17.26
2019-03-15T11:08:40.163Z,17.01
2019-03-15T11:11:09.511Z,16.61
2019-03-15T11:13:38.956Z,17.03
2019-03-15T11:16:08.373Z,16.54
2019-03-15T11:18:37.750Z,16.86
2019-03-15T11:21:07.205Z,17.13
2019-03-15T11:23:36.530Z,17.52
2019-03-15T11:26:13.547Z,17.97
2019-03-15T11:28:36.965Z,18.46
2019-03-15T11:31:06.389Z,18.85
2019-03-15T11:33:35.750Z,18.91
2019-03-15T11:36:05.109Z,19.01
2019-03-15T11:38:34.458Z,18.56
2019-03-15T11:41:03.823Z,19.31
2019-03-15T11:43:33.171Z,19.34
2019-03-15T11:46:02.528Z,19.18
2019-03-15T11:48:31.872Z,19.84
2019-03-15T11:51:01.298Z,19.40
2019-03-15T11:53:30.776Z,19.54
2019-03-15T11:56:00.120Z,19.55
2019-03-15T11:58:29.467Z,19.36
2019-03-15T12:00:58.894Z,19.06
2019-03-15T12:03:28.228Z,19.12
2019-03-15T12:05:57.643Z,19.46
2019-03-15T12:08:27.002Z,20.18
2019-03-15T12:10:56.340Z,19.89
2019-03-15T12:13:25.764Z,19.91
2019-03-15T12:15:55.121Z,19.83
2019-03-15T12:18:24.552Z,18.90
2019-03-15T12:20:53.979Z,18.54
2019-03-15T12:23:23.412Z,19.21
2019-03-15T12:25:52.828Z,19.08
2019-03-15T12:28:22.185Z,19.66
2019-03-15T12:30:51.543Z,19.37
2019-03-15T12:33:20.900Z,19.43
2019-03-15T12:35:50.250Z,18.95
2019-03-15T12:38:19.677Z,18.96
2019-03-15T12:40:49.116Z,19.09
2019-03-15T12:43:18.452Z,19.31
2019-03-15T12:45:47.805Z,19.09
2019-03-15T12:48:17.233Z,18.46
2019-03-15T12:50:46.661Z,17.92
2019-03-15T12:53:16.062Z,18.11
2019-03-15T12:55:45.483Z,18.64
2019-03-15T12:58:14.899Z,18.81
2019-03-15T13:00:44.330Z,19.14
2019-03-15T13:03:13.777Z,19.16
2019-03-15T13:05:43.207Z,18.83
2019-03-15T13:08:12.555Z,19.11
2019-03-15T13:10:41.987Z,19.29
2019-03-15T13:13:11.408Z,19.50
2019-03-15T13:15:40.855Z,19.55
2019-03-15T13:18:10.277Z,19.88
2019-03-15T13:20:39.617Z,19.95
2019-03-15T13:23:09.041Z,19.43
2019-03-15T13:25:38.414Z,19.56
2019-03-15T13:28:07.763Z,19.27
2019-03-15T13:30:37.191Z,19.14
2019-03-15T13:33:19.112Z,19.20
2019-03-15T13:35:37.702Z,19.34
2019-03-15T13:38:07.067Z,19.70
2019-03-15T13:40:36.417Z,19.22
2019-03-15T13:43:05.773Z,19.08
2019-03-15T13:45:35.193Z,19.74
2019-03-15T13:48:04.616Z,19.52
2019-03-15T13:50:33.972Z,19.54
2019-03-15T13:53:03.327Z,19.42
2019-03-15T13:55:32.681Z,19.40
2019-03-15T13:58:02.104Z,19.27
2019-03-15T14:00:31.459Z,19.02
2019-03-15T14:03:00.884Z,19.37
2019-03-15T14:05:30.237Z,19.35
2019-03-15T14:08:11.265Z,19.19
2019-03-15T14:10:30.757Z,18.86
2019-03-15T14:13:00.117Z,19.19
2019-03-15T14:15:29.534Z,19.47
2019-03-15T14:17:58.999Z,18.87
2019-03-15T14:20:28.440Z,18.91
2019-03-15T14:22:57.849Z,19.32
2019-03-15T14:25:28.175Z,19.16
2019-03-15T14:27:57.625Z,19.05
2019-03-15T14:30:27.047Z,18.99
2019-03-15T14:32:56.408Z,19.05
2019-03-15T14:35:25.836Z,19.24
2019-03-15T14:37:55.363Z,18.83
2019-03-15T14:40:25.059Z,19.26
2019-03-15T14:42:54.636Z,19.13
2019-03-15T14:45:24.247Z,18.91
2019-03-15T14:47:53.643Z,18.38
2019-03-15T14:50:23.073Z,18.46
2019-03-15T14:52:52.414Z,18.31
2019-03-15T14:55:21.843Z,17.71
2019-03-15T14:57:53.311Z,17.31
2019-03-15T15:00:22.351Z,16.95
2019-03-15T15:02:51.769Z,17.13
2019-03-15T15:05:21.131Z,17.03
2019-03-15T15:07:50.497Z,17.23
2019-03-15T15:10:20.026Z,17.15
2019-03-15T15:12:49.505Z,16.92
2019-03-15T15:15:22.154Z,17.20
2019-03-15T15:17:51.581Z,17.09
2019-03-15T15:20:21.011Z,17.48
2019-03-15T15:22:50.442Z,17.68
2019-03-15T15:25:19.892Z,17.02
2019-03-15T15:27:49.306Z,17.25
2019-03-15T15:30:19.049Z,17.75
2019-03-15T15:32:48.483Z,17.32
2019-03-15T15:35:17.858Z,16.97
2019-03-15T15:37:47.302Z,16.37
2019-03-15T15:40:18.526Z,16.11
2019-03-15T15:42:47.893Z,15.99
2019-03-15T15:45:17.258Z,15.38
2019-03-15T15:47:46.701Z,15.09
2019-03-15T15:50:16.562Z,14.84
2019-03-15T15:52:46.016Z,14.80
2019-03-15T15:55:16.245Z,14.67
2019-03-15T15:57:45.675Z,14.54
2019-03-15T16:00:18.505Z,14.40
2019-03-15T16:02:47.950Z,14.22
2019-03-15T16:05:17.373Z,14.12
2019-03-15T16:07:46.817Z,13.93
2019-03-15T16:10:18.256Z,13.79
2019-03-15T16:12:47.573Z,13.73
2019-03-15T16:15:19.993Z,13.60
2019-03-15T16:17:49.432Z,13.51
2019-03-15T16:20:18.874Z,13.31
2019-03-15T16:22:48.320Z,13.12
2019-03-15T16:25:17.769Z,13.10
2019-03-15T16:27:47.149Z,12.95
2019-03-15T16:30:18.587Z,12.85
2019-03-15T16:32:48.252Z,12.75
2019-03-15T16:35:17.701Z,12.69
2019-03-15T16:37:47.071Z,12.61
2019-03-15T16:40:16.807Z,12.45
2019-03-15T16:42:46.192Z,12.39
2019-03-15T16:45:24.131Z,12.36
2019-03-15T16:47:53.498Z,12.42
2019-03-15T16:50:22.956Z,12.39
2019-03-15T16:52:52.381Z,12.29
2019-03-15T16:55:21.801Z,12.09
2019-03-15T16:57:51.262Z,12.01
2019-03-15T17:00:20.710Z,11.96
2019-03-15T17:02:50.178Z,11.94
2019-03-15T17:05:19.601Z,11.80
2019-03-15T17:07:49.033Z,11.75
2019-03-15T17:10:20.054Z,11.85
2019-03-15T17:12:49.493Z,11.88
2019-03-15T17:15:21.492Z,11.79
2019-03-15T17:17:50.940Z,11.77
2019-03-15T17:20:20.380Z,11.86
2019-03-15T17:22:49.807Z,11.90
2019-03-15T17:25:19.233Z,11.80
2019-03-15T17:27:48.682Z,11.76
2019-03-15T17:30:18.619Z,11.86
2019-03-15T17:32:48.055Z,11.86
2019-03-15T17:35:21.223Z,11.81
2019-03-15T17:37:50.655Z,11.89
2019-03-15T17:40:21.009Z,11.79
2019-03-15T17:42:50.371Z,11.75
2019-03-15T17:45:19.749Z,11.76
2019-03-15T17:47:49.182Z,11.72
2019-03-15T17:50:22.978Z,11.64
2019-03-15T17:52:52.403Z,11.66
2019-03-15T17:55:21.864Z,11.66
2019-03-15T17:57:51.307Z,11.74
2019-03-15T18:00:27.967Z,11.75
2019-03-15T18:02:57.524Z,11.86
2019-03-15T18:05:26.953Z,11.87
2019-03-15T18:07:56.424Z,11.86
2019-03-15T18:10:25.842Z,11.78
2019-03-15T18:12:55.284Z,11.66
2019-03-15T18:15:24.729Z,11.67
2019-03-15T18:17:54.188Z,11.67
2019-03-15T18:20:23.620Z,11.59
2019-03-15T18:22:53.077Z,11.61
2019-03-15T18:25:22.565Z,11.61
2019-03-15T18:27:52.807Z,11.49
2019-03-15T18:30:22.318Z,11.43
2019-03-15T18:32:51.804Z,11.30
2019-03-15T18:35:32.959Z,11.30
2019-03-15T18:37:52.651Z,11.31
2019-03-15T18:40:22.118Z,11.25
2019-03-15T18:42:51.569Z,11.26
2019-03-15T18:45:21.008Z,11.19
2019-03-15T18:47:50.654Z,11.19
2019-03-15T18:50:24.774Z,11.11
2019-03-15T18:52:54.155Z,11.13
2019-03-15T18:55:23.613Z,11.08
2019-03-15T18:57:53.042Z,11.09
2019-03-15T19:00:23.640Z,11.04
2019-03-15T19:02:53.084Z,11.02
2019-03-15T19:05:22.546Z,10.93
2019-03-15T19:07:51.931Z,11.02
2019-03-15T19:10:21.396Z,10.91
2019-03-15T19:12:50.914Z,10.86
2019-03-15T19:15:21.550Z,10.85
2019-03-15T19:17:51.011Z,10.78
2019-03-15T19:20:20.387Z,10.72
2019-03-15T19:22:49.844Z,10.70
2019-03-15T19:25:19.294Z,10.71
2019-03-15T19:27:48.773Z,10.33
2019-03-15T19:30:21.241Z,10.55
2019-03-15T19:32:58.906Z,10.51
2019-03-15T19:35:30.160Z,10.54
2019-03-15T19:37:59.614Z,10.51
2019-03-15T19:40:29.072Z,10.47
2019-03-15T19:42:58.522Z,10.46
2019-03-15T19:45:28.053Z,10.39
2019-03-15T19:47:57.580Z,10.36
2019-03-15T19:50:27.033Z,10.26
2019-03-15T19:52:56.480Z,10.12
2019-03-15T19:55:25.996Z,9.97
2019-03-15T19:57:55.441Z,9.93
2019-03-15T20:00:24.945Z,9.97
2019-03-15T20:02:54.391Z,9.89
2019-03-15T20:05:23.758Z,9.74
2019-03-15T20:07:53.326Z,9.68
2019-03-15T20:10:22.805Z,9.66
2019-03-15T20:12:52.262Z,9.58
2019-03-15T20:15:21.630Z,9.51
2019-03-15T20:17:51.056Z,9.38
2019-03-15T20:20:20.979Z,9.29
2019-03-15T20:22:50.422Z,9.06
2019-03-15T20:25:19.840Z,8.89
2019-03-15T20:27:49.254Z,8.83
2019-03-15T20:30:25.974Z,8.82
2019-03-15T20:32:51.068Z,8.73
2019-03-15T20:35:20.510Z,8.55
2019-03-15T20:37:49.964Z,8.40
2019-03-15T20:40:19.408Z,8.32
2019-03-15T20:42:48.774Z,8.19
2019-03-15T20:45:26.109Z,8.12
2019-03-15T20:47:55.513Z,8.17
2019-03-15T20:50:24.944Z,8.15
2019-03-15T20:53:07.251Z,8.16
2019-03-15T20:55:28.539Z,8.10
2019-03-15T20:57:56.729Z,8.06
2019-03-15T21:00:35.508Z,8.15
2019-03-15T21:02:57.250Z,8.15
2019-03-15T21:05:26.702Z,8.14
2019-03-15T21:07:56.120Z,8.20
2019-03-15T21:10:25.499Z,8.15
2019-03-15T21:12:54.854Z,8.12
2019-03-15T21:15:24.283Z,8.05
2019-03-15T21:17:53.627Z,8.06
2019-03-15T21:20:23.196Z,8.12
2019-03-15T21:22:52.583Z,8.16
2019-03-15T21:25:21.962Z,8.22
2019-03-15T21:27:54.142Z,8.34
2019-03-15T21:30:25.320Z,8.43
2019-03-15T21:32:54.744Z,8.50
2019-03-15T21:35:24.189Z,8.54
2019-03-15T21:37:53.625Z,8.56
2019-03-15T21:40:23.362Z,8.56
2019-03-15T21:42:52.785Z,8.62
2019-03-15T21:45:22.215Z,8.68
2019-03-15T21:47:51.638Z,8.71
2019-03-15T21:50:24.239Z,8.60
2019-03-15T21:52:53.658Z,8.60
2019-03-15T21:55:23.087Z,8.66
2019-03-15T21:57:52.518Z,8.66
2019-03-15T22:00:21.951Z,8.74
2019-03-15T22:02:51.362Z,8.75
2019-03-15T22:05:20.793Z,8.74
2019-03-15T22:07:50.214Z,8.82
2019-03-15T22:10:19.561Z,8.83
2019-03-15T22:12:48.925Z,8.81
2019-03-15T22:15:18.369Z,8.74
2019-03-15T22:17:47.879Z,8.60
2019-03-15T22:20:17.784Z,8.49
2019-03-15T22:22:47.144Z,8.37
2019-03-15T22:25:16.506Z,8.36
2019-03-15T22:27:45.960Z,8.34
2019-03-15T22:30:15.672Z,8.33
2019-03-15T22:32:45.107Z,8.19
2019-03-15T22:35:14.450Z,7.99
2019-03-15T22:37:43.807Z,7.88
2019-03-15T22:40:14.252Z,7.81
2019-03-15T22:42:43.683Z,7.76
2019-03-15T22:45:14.411Z,7.68
2019-03-15T22:47:43.829Z,7.49
2019-03-15T22:50:14.243Z,7.36
2019-03-15T22:52:43.614Z,7.42
2019-03-15T22:55:13.054Z,7.41
2019-03-15T22:57:42.490Z,7.37
2019-03-15T23:00:16.762Z,7.36
2019-03-15T23:02:45.616Z,7.27
2019-03-15T23:05:14.823Z,7.16
2019-03-15T23:07:44.288Z,7.05
2019-03-15T23:10:13.728Z,7.01
2019-03-15T23:12:42.509Z,6.87
2019-03-15T23:15:11.979Z,6.69
2019-03-15T23:17:40.753Z,6.59
2019-03-15T23:20:11.820Z,6.59
2019-03-15T23:22:40.620Z,6.55
2019-03-15T23:25:09.688Z,6.55
2019-03-15T23:27:38.527Z,6.66
2019-03-15T23:30:12.950Z,6.70
2019-03-15T23:32:41.935Z,6.76
2019-03-15T23:35:10.778Z,6.84
2019-03-15T23:37:39.609Z,6.86
2019-03-15T23:40:10.816Z,6.88
2019-03-15T23:42:39.767Z,6.88
2019-03-15T23:45:10.056Z,6.88
2019-03-15T23:47:38.835Z,7.01
2019-03-15T23:50:12.997Z,7.03
2019-03-15T23:52:41.835Z,6.99
2019-03-15T23:55:10.874Z,6.94
2019-03-15T23:57:39.643Z,6.94
